Data for 07/27/2014

Time Sea-Level Adjusted Pressure Absolute Pressure Temperature Relative Humidity Dew Point   
(mb) (inHg) (mb) (inHg) (C) (F) (%) (C) (F)
00:05 1026 30.3 855 25.25 17.5 63.5 32 0.6 33.2
00:10 1026 30.3 855 25.25 17.5 63.4 32 0.6 33.1
00:15 1026 30.3 855 25.25 17.5 63.4 32 0.7 33.2
00:20 1026 30.3 855 25.25 17.4 63.3 32 0.6 33.1
00:25 1026 30.3 855 25.25 17.3 63.2 32 0.6 33.1
00:30 1026 30.3 855 25.25 17.3 63.2 32 0.6 33
00:35 1026 30.3 855 25.25 17.3 63.1 32 0.6 33.2
00:40 1026 30.3 855 25.25 17.2 62.9 32 0.7 33.2
00:45 1026 30.3 855 25.25 17.1 62.7 33 0.6 33.1
00:50 1026 30.3 855 25.25 17 62.6 33 0.7 33.2
00:55 1026 30.3 855 25.25 17 62.5 33 0.6 33.1
01:00 1026 30.3 855 25.25 17 62.5 33 0.7 33.2
01:05 1026 30.3 855 25.25 16.9 62.4 33 0.6 33.1
01:10 1026 30.3 855 25.25 16.9 62.4 33 0.7 33.2
01:15 1026 30.3 855 25.25 16.8 62.3 33 0.7 33.3
01:20 1026 30.3 855 25.25 16.8 62.2 33 0.7 33.2
01:25 1026 30.3 856 25.28 16.7 62.1 34 0.7 33.3
01:30 1026 30.3 856 25.28 16.7 62.1 34 0.7 33.3
01:35 1026 30.3 856 25.28 16.7 62 34 0.9 33.5
01:40 1026 30.3 856 25.28 16.5 61.7 34 0.8 33.5
01:45 1026 30.3 856 25.28 16.4 61.6 35 1 33.9
01:50 1026 30.3 856 25.28 16.4 61.5 35 1.1 34
01:55 1027 30.33 856 25.28 16.4 61.5 35 1.1 33.9
02:00 1027 30.33 856 25.28 16.4 61.4 35 1.1 34
02:05 1026 30.3 856 25.28 16.4 61.5 35 1.2 34.1
02:10 1027 30.33 856 25.28 16.3 61.4 36 1.2 34.1
02:15 1027 30.33 856 25.28 16.3 61.4 36 1.3 34.4
02:20 1027 30.33 856 25.28 16.2 61.1 36 1.4 34.5
02:25 1027 30.33 856 25.28 16 60.8 37 1.4 34.5
02:30 1027 30.33 856 25.28 15.9 60.6 37 1.4 34.5
02:35 1027 30.33 856 25.28 15.9 60.7 37 1.3 34.4
02:40 1027 30.33 856 25.28 15.9 60.7 37 1.4 34.5
02:45 1027 30.33 856 25.28 15.8 60.5 37 1.4 34.4
02:50 1027 30.33 856 25.28 15.8 60.4 37 1.4 34.6
02:55 1027 30.33 856 25.28 15.8 60.4 37 1.4 34.5
03:00 1027 30.33 856 25.28 15.7 60.3 38 1.4 34.5
03:05 1027 30.33 856 25.28 15.7 60.2 38 1.5 34.7
03:10 1027 30.33 856 25.28 15.6 60 38 1.4 34.6
03:15 1027 30.33 856 25.28 15.5 59.9 39 1.6 34.8
03:20 1027 30.33 856 25.28 15.5 59.8 38 1.5 34.6
03:25 1027 30.33 856 25.28 15.5 59.8 38 1.5 34.6
03:30 1027 30.33 856 25.28 15.4 59.6 39 1.4 34.6
03:35 1027 30.33 856 25.28 15.3 59.6 38 1.4 34.4
03:40 1027 30.33 856 25.28 15.4 59.6 39 1.5 34.7
03:45 1027 30.33 856 25.28 15.3 59.5 39 1.6 34.8
03:50 1027 30.33 856 25.28 15.3 59.5 39 1.6 34.8
03:55 1027 30.33 856 25.28 15.2 59.3 40 1.7 35
04:00 1027 30.33 856 25.28 15.1 59.1 40 1.7 35
04:05 1027 30.33 856 25.28 15.1 59.1 40 1.6 34.9
04:10 1027 30.33 856 25.28 15 59.1 40 1.6 34.9
04:15 1027 30.33 856 25.28 15.1 59.2 39 1.5 34.7
04:20 1027 30.33 856 25.28 15.1 59.2 39 1.5 34.8
04:25 1027 30.33 856 25.28 15.1 59.3 39 1.5 34.7
04:30 1027 30.33 856 25.28 15.1 59.1 40 1.5 34.7
04:35 1027 30.33 856 25.28 15 59.1 40 1.6 34.8
04:40 1027 30.33 856 25.28 15 58.9 40 1.7 35
04:45 1027 30.33 856 25.28 14.9 58.7 40 1.5 34.8
04:50 1027 30.33 856 25.28 14.9 58.8 40 1.5 34.7
04:55 1027 30.33 856 25.28 14.9 58.8 40 1.4 34.6
05:00 1027 30.33 856 25.28 15 59 40 1.5 34.7
05:05 1027 30.33 856 25.28 15 58.9 40 1.5 34.6
05:10 1027 30.33 856 25.28 14.8 58.6 41 1.6 34.9
05:15 1027 30.33 856 25.28 14.7 58.4 41 1.5 34.7
05:20 1027 30.33 856 25.28 14.6 58.2 42 1.7 35.1
05:25 1027 30.33 856 25.28 14.4 58 42 1.7 35.1
05:30 1027 30.33 856 25.28 14.3 57.8 42 1.8 35.3
05:35 1027 30.33 856 25.28 14.2 57.6 43 1.8 35.3
05:40 1027 30.33 856 25.28 14.2 57.5 43 1.7 35.1
05:45 1027 30.33 856 25.28 14.3 57.7 43 1.8 35.3
05:50 1027 30.33 856 25.28 14.3 57.7 43 2 35.6
05:55 1027 30.33 856 25.28 14.2 57.6 43 1.9 35.4
06:00 1027 30.33 856 25.28 14.4 57.9 43 2 35.5
06:05 1027 30.33 856 25.28 14.6 58.3 41 1.8 35.2
06:10 1027 30.33 856 25.28 14.9 58.7 42 2 35.6
06:15 1027 30.33 856 25.28 15 59.1 41 2 35.6
06:20 1027 30.33 856 25.28 15.3 59.5 40 2 35.6
06:25 1027 30.33 857 25.31 15.4 59.7 40 2.1 35.8
06:30 1027 30.33 857 25.31 15.5 59.8 41 2.4 36.3
06:35 1027 30.33 857 25.31 15.7 60.2 40 2.1 35.7
06:40 1027 30.33 857 25.31 15.8 60.5 39 1.9 35.4
06:45 1027 30.33 857 25.31 16 60.8 38 1.7 35.1
06:50 1027 30.33 857 25.31 16.3 61.3 38 1.9 35.5
06:55 1027 30.33 857 25.31 16.4 61.5 37 1.7 35.1
07:00 1028 30.36 857 25.31 16.5 61.6 37 1.9 35.4
07:05 1028 30.36 857 25.31 16.7 62 37 1.9 35.4
07:10 1028 30.36 857 25.31 16.8 62.3 36 1.7 35.1
07:15 1028 30.36 857 25.31 17 62.6 36 1.8 35.2
07:20 1028 30.36 857 25.31 17.2 63 35 1.7 35.1
07:25 1028 30.36 857 25.31 17.4 63.2 35 1.9 35.4
07:30 1028 30.36 857 25.31 17.7 63.8 35 2.1 35.8
07:35 1028 30.36 857 25.31 17.9 64.2 35 2.3 36.1
07:40 1028 30.36 857 25.31 18.3 64.9 33 1.9 35.4
07:45 1028 30.36 857 25.31 18.4 65.2 34 2.2 36
07:50 1028 30.36 857 25.31 18.4 65 32 1.6 34.9
07:55 1028 30.36 857 25.31 18.6 65.4 33 2 35.6
08:00 1028 30.36 857 25.31 19.1 66.5 32 2.1 35.9
08:05 1028 30.36 857 25.31 19.1 66.4 32 2 35.6
08:10 1028 30.36 857 25.31 19.1 66.4 32 2 35.6
08:15 1028 30.36 857 25.31 19.4 66.9 31 2 35.5
08:20 1028 30.36 857 25.31 19.4 66.9 31 2.1 35.7
08:25 1028 30.36 857 25.31 19.5 67.2 31 2.2 36
08:30 1028 30.36 857 25.31 20 68 30 2.2 35.9
08:35 1028 30.36 857 25.31 20 68 30 1.8 35.3
08:40 1028 30.36 857 25.31 20.2 68.4 30 2.1 35.7
08:45 1028 30.36 857 25.31 20.5 69 29 2 35.7
08:50 1028 30.36 857 25.31 20.4 68.8 28 1.5 34.6
08:55 1028 30.36 857 25.31 20.6 69.2 29 2.1 35.8
09:00 1028 30.36 857 25.31 21 69.7 29 2.5 36.6
09:05 1028 30.36 857 25.31 21 69.7 30 3 37.3
09:10 1028 30.36 857 25.31 21.2 70.2 29 2.7 36.9
09:15 1028 30.36 857 25.31 21.6 70.9 29 2.8 37
09:20 1028 30.36 857 25.31 21.7 71.1 29 3.1 37.6
09:25 1028 30.36 857 25.31 21.4 70.6 29 3.1 37.5
09:30 1028 30.36 857 25.31 22 71.6 28 2.8 37
09:35 1027 30.33 857 25.31 22.3 72.2 28 3.1 37.5
09:40 1027 30.33 857 25.31 22.1 71.8 28 2.8 37
09:45 1027 30.33 857 25.31 23.2 73.7 27 3.2 37.7
09:50 1027 30.33 857 25.31 24.1 75.3 26 3.4 38.1
09:55 1027 30.33 857 25.31 24.2 75.5 26 3.7 38.6
10:00 1027 30.33 857 25.31 23.9 75.1 26 3.3 38
10:05 1027 30.33 857 25.31 24.4 75.9 25 3.4 38.1
10:10 1027 30.33 857 25.31 23.7 74.7 26 3.2 37.8
10:15 1027 30.33 857 25.31 23.8 74.9 25 3.1 37.6
10:20 1027 30.33 857 25.31 24.4 75.9 25 3.1 37.5
10:25 1027 30.33 856 25.28 23.3 73.9 26 3 37.4
10:30 1027 30.33 856 25.28 23.4 74.1 26 3.1 37.6
10:35 1027 30.33 856 25.28 24 75.1 24 2.7 36.8
10:40 1027 30.33 856 25.28 25.2 77.3 23 2.6 36.7
10:45 1027 30.33 856 25.28 24.6 76.2 24 2.9 37.1
10:50 1027 30.33 856 25.28 25.2 77.3 23 2.7 36.9
10:55 1027 30.33 856 25.28 25.9 78.6 22 2.8 37
11:00 1027 30.33 856 25.28 26 78.7 22 3.2 37.7
11:05 1027 30.33 856 25.28 25.3 77.6 23 3.2 37.8
11:10 1027 30.33 856 25.28 26 78.8 22 2.9 37.1
11:15 1027 30.33 856 25.28 26.1 78.9 22 3.1 37.7
11:20 1027 30.33 856 25.28 26.4 79.6 22 3.3 38
11:25 1027 30.33 856 25.28 26.9 80.4 21 3.2 37.7
11:30 1027 30.33 856 25.28 26.5 79.6 21 2.8 37
11:35 1027 30.33 856 25.28 25.7 78.2 21 1.7 35
11:40 1027 30.33 856 25.28 26.2 79.2 20 2 35.7
11:45 1027 30.33 856 25.28 27.1 80.7 20 2.2 35.9
11:50 1027 30.33 856 25.28 27.3 81.2 19 2.3 36.2
11:55 1027 30.33 856 25.28 27.8 82.1 20 3.1 37.6
12:00 1027 30.33 856 25.28 27.6 81.7 19 2.2 35.9
12:05 1026 30.3 856 25.28 27.1 80.7 18 0.7 33.3
12:10 1026 30.3 856 25.28 27.5 81.5 17 0.4 32.8
12:15 1026 30.3 856 25.28 27.8 82 18 1.5 34.7
12:20 1026 30.3 856 25.28 27.8 82 17 0.5 32.9
12:25 1026 30.3 856 25.28 28.3 83 15 -0 32
12:30 1026 30.3 855 25.25 28.8 83.8 16 1 33.8
12:35 1026 30.3 855 25.25 29 84.2 16 0.6 33
12:40 1026 30.3 855 25.25 27.8 82 17 0.8 33.5
12:45 1026 30.3 855 25.25 28.1 82.6 17 0.8 33.4
12:50 1026 30.3 855 25.25 28.9 84 15 -0.1 31.9
12:55 1026 30.3 855 25.25 29.7 85.4 15 0.4 32.6
13:00 1026 30.3 855 25.25 28.7 83.7 15 -0.4 31.2
13:05 1026 30.3 855 25.25 28.6 83.5 15 -0.3 31.4
13:10 1026 30.3 855 25.25 30 86.1 14 -0.1 31.9
13:15 1026 30.3 855 25.25 30.2 86.4 14 -0.1 31.9
13:20 1026 30.3 855 25.25 29.3 84.7 15 -0 31.9
13:25 1026 30.3 855 25.25 28.9 84.1 14 -1.3 29.6
13:30 1026 30.3 855 25.25 29.5 85.1 14 -0.1 31.8
13:35 1026 30.3 855 25.25 29.8 85.6 14 -0.5 31.1
13:40 1026 30.3 855 25.25 30 86 13 -0.8 30.6
13:45 1026 30.3 855 25.25 30.1 86.1 13 -0.8 30.6
13:50 1026 30.3 855 25.25 30.4 86.6 14 -0.1 31.7
13:55 1026 30.3 855 25.25 29.7 85.5 13 -1.3 29.6
14:00 1026 30.3 855 25.25 29.8 85.6 13 -1.3 29.7
14:05 1026 30.3 855 25.25 30.8 87.4 12 -1.8 28.7
14:10 1026 30.3 855 25.25 29.2 84.6 13 -1.3 29.7
14:15 1026 30.3 855 25.25 29.7 85.4 12 -2.4 27.7
14:20 1026 30.3 855 25.25 29.2 84.6 13 -2.1 28.2
14:25 1026 30.3 855 25.25 30.2 86.4 11 -2.6 27.3
14:30 1026 30.3 855 25.25 30 86 12 -2.2 28
14:35 1026 30.3 855 25.25 30.8 87.5 11 -2.2 28.1
14:40 1026 30.3 855 25.25 30.2 86.4 12 -2.3 27.8
14:45 1026 30.3 855 25.25 29.8 85.6 12 -2.3 27.8
14:50 1025 30.27 855 25.25 29.7 85.5 12 -2.4 27.7
14:55 1025 30.27 855 25.25 29.1 84.3 12 -2.9 26.8
15:00 1025 30.27 855 25.25 29.5 85.2 12 -3 26.6
15:05 1025 30.27 855 25.25 29.8 85.6 12 -2.7 27.1
15:10 1025 30.27 854 25.22 30.7 87.2 11 -3 26.7
15:15 1025 30.27 854 25.22 30.3 86.5 11 -2.6 27.3
15:20 1025 30.27 854 25.22 30.8 87.4 11 -3.2 26.3
15:25 1025 30.27 854 25.22 30.5 86.9 12 -2.1 28.2
15:30 1025 30.27 854 25.22 30.6 87.1 10 -3.6 25.5
15:35 1025 30.27 854 25.22 30.9 87.6 10 -3.8 25.2
15:40 1025 30.27 854 25.22 30.8 87.5 11 -3.1 26.4
15:45 1025 30.27 854 25.22 30.4 86.7 11 -2.5 27.5
15:50 1025 30.27 854 25.22 30.8 87.4 11 -3.3 26
15:55 1025 30.27 854 25.22 31.4 88.5 10 -3.4 25.9
16:00 1025 30.27 854 25.22 31.6 89 10 -3.3 26
16:05 1025 30.27 854 25.22 31.4 88.6 10 -3 26.6
16:10 1025 30.27 854 25.22 31.6 88.8 10 -3.2 26.3
16:15 1025 30.27 854 25.22 31.3 88.4 11 -2.5 27.5
16:20 1025 30.27 854 25.22 30.8 87.4 11 -3.1 26.4
16:25 1025 30.27 854 25.22 30.7 87.2 10 -3.6 25.6
16:30 1025 30.27 854 25.22 30 85.9 11 -3.3 26
16:35 1025 30.27 854 25.22 29.7 85.4 12 -2.9 26.7
16:40 1025 30.27 854 25.22 30.5 87 12 -1.9 28.5
16:45 1025 30.27 854 25.22 30.5 86.9 11 -2.4 27.6
16:50 1025 30.27 854 25.22 30.3 86.5 11 -2.6 27.3
16:55 1025 30.27 854 25.22 31 87.8 11 -2.1 28.3
17:00 1025 30.27 854 25.22 31 87.8 11 -2.1 28.3
17:05 1025 30.27 854 25.22 31 87.7 11 -2.5 27.5
17:10 1025 30.27 854 25.22 31 87.9 11 -2.2 28.1
17:15 1025 30.27 854 25.22 30.9 87.7 12 -1.9 28.6
17:20 1025 30.27 854 25.22 30.8 87.4 11 -2.1 28.1
17:25 1025 30.27 854 25.22 30.8 87.4 12 -2.1 28.2
17:30 1025 30.27 854 25.22 30.8 87.4 12 -1.4 29.5
17:35 1025 30.27 854 25.22 30.7 87.2 11 -2.5 27.5
17:40 1025 30.27 854 25.22 30.6 87 12 -1.7 28.9
17:45 1025 30.27 854 25.22 30.3 86.5 11 -2.7 27.1
17:50 1024 30.24 854 25.22 30.3 86.6 12 -1.8 28.7
17:55 1024 30.24 854 25.22 30.5 87 11 -2.6 27.4
18:00 1024 30.24 854 25.22 30.6 87.1 12 -2.2 28.1
18:05 1024 30.24 854 25.22 30.5 86.9 12 -2.1 28.2
18:10 1024 30.24 854 25.22 30.6 87.1 11 -2.7 27.1
18:15 1024 30.24 854 25.22 30.3 86.5 12 -1.7 28.9
18:20 1024 30.24 853 25.19 29.6 85.3 11 -3.4 25.9
18:25 1024 30.24 853 25.19 29.1 84.3 12 -2.8 27
18:30 1024 30.24 853 25.19 28.9 84 12 -3.4 25.9
18:35 1024 30.24 853 25.19 28.8 83.9 11 -4.4 24.1
18:40 1024 30.24 854 25.22 28.8 83.8 11 -4.4 24.1
18:45 1024 30.24 854 25.22 28.7 83.6 12 -3.5 25.7
18:50 1024 30.24 854 25.22 28.5 83.3 12 -3.6 25.6
18:55 1024 30.24 854 25.22 28.4 83.2 14 -1.2 29.8
19:00 1024 30.24 854 25.22 28 82.4 15 -0.6 30.9
19:05 1024 30.24 854 25.22 27.7 81.9 18 1.2 34.2
19:10 1024 30.24 854 25.22 27.4 81.3 17 0.7 33.2
19:15 1025 30.27 854 25.22 27.2 80.9 17 0.6 33
19:20 1025 30.27 854 25.22 27 80.6 17 0.4 32.7
19:25 1025 30.27 854 25.22 26.9 80.4 17 0.3 32.5
19:30 1024 30.24 854 25.22 26.6 80 18 0.7 33.3
19:35 1024 30.24 854 25.22 26.4 79.5 18 0.7 33.3
19:40 1024 30.24 854 25.22 26.2 79.2 18 0.5 33
19:45 1024 30.24 854 25.22 25.9 78.6 19 1.1 34
19:50 1024 30.24 854 25.22 25.4 77.7 20 0.8 33.5
19:55 1025 30.27 854 25.22 25.2 77.4 20 0.8 33.5
20:00 1025 30.27 854 25.22 24.9 76.9 20 1 33.7
20:05 1025 30.27 854 25.22 24.6 76.4 21 1 33.7
20:10 1025 30.27 854 25.22 24.5 76 21 0.8 33.5
20:15 1025 30.27 854 25.22 24.4 75.9 20 0.4 32.6
20:20 1025 30.27 854 25.22 24.4 75.8 21 0.5 33
20:25 1025 30.27 854 25.22 24.2 75.6 21 0.7 33.2
20:30 1025 30.27 854 25.22 24.3 75.7 21 0.7 33.2
20:35 1025 30.27 854 25.22 24 75.3 22 1.2 34.2
20:40 1025 30.27 854 25.22 23.6 74.4 23 1.2 34.2
20:45 1025 30.27 854 25.22 23.5 74.4 22 1.1 34
20:50 1025 30.27 854 25.22 23.8 74.8 22 1 33.8
20:55 1025 30.27 854 25.22 24 75.2 22 1.1 33.9
21:00 1025 30.27 854 25.22 24 75.1 22 1.2 34.2
21:05 1025 30.27 854 25.22 23.9 75 22 1.2 34.2
21:10 1025 30.27 854 25.22 23.8 74.9 22 1.3 34.4
21:15 1025 30.27 854 25.22 23.8 74.8 23 1.4 34.5
21:20 1025 30.27 854 25.22 23.7 74.6 22 1.2 34.1
21:25 1025 30.27 854 25.22 23.7 74.7 23 1.4 34.6
21:30 1025 30.27 854 25.22 23.5 74.3 23 1.4 34.5
21:35 1025 30.27 854 25.22 23.3 74 23 1.4 34.4
21:40 1025 30.27 854 25.22 23.3 73.9 23 1.4 34.5
21:45 1025 30.27 854 25.22 23.1 73.6 24 1.5 34.7
21:50 1025 30.27 854 25.22 23 73.4 24 1.6 34.9
21:55 1025 30.27 854 25.22 22.9 73.2 24 1.5 34.8
22:00 1025 30.27 854 25.22 22.8 73 24 1.4 34.6
22:05 1025 30.27 854 25.22 22.8 73.1 24 1.6 34.8
22:10 1025 30.27 854 25.22 22.7 72.8 25 1.8 35.2
22:15 1025 30.27 854 25.22 22.5 72.5 25 1.8 35.2
22:20 1025 30.27 854 25.22 22.5 72.5 25 1.9 35.4
22:25 1025 30.27 854 25.22 22.4 72.3 26 1.9 35.5
22:30 1025 30.27 854 25.22 22.3 72.2 26 2 35.7
22:35 1025 30.27 854 25.22 22.3 72.1 26 2.1 35.7
22:40 1025 30.27 854 25.22 22.2 72 26 2.1 35.7
22:45 1025 30.27 854 25.22 22.2 71.9 26 2.1 35.8
22:50 1025 30.27 854 25.22 22.2 71.9 26 2.2 35.9
22:55 1025 30.27 854 25.22 22.1 71.7 26 2.1 35.9
23:00 1025 30.27 854 25.22 22 71.6 27 2.1 35.9
23:05 1025 30.27 854 25.22 21.9 71.5 27 2.1 35.8
23:10 1025 30.27 854 25.22 21.8 71.3 27 2 35.6
23:15 1025 30.27 854 25.22 21.8 71.2 27 2.1 35.9
23:20 1025 30.27 854 25.22 21.7 71 27 2.1 35.8
23:25 1025 30.27 854 25.22 21.5 70.7 28 2.2 35.9
23:30 1025 30.27 854 25.22 21.4 70.5 28 2.1 35.8
23:35 1025 30.27 854 25.22 21.4 70.5 28 2.1 35.8
23:40 1025 30.27 854 25.22 21.3 70.3 28 2.1 35.8
23:45 1025 30.27 854 25.22 21.2 70.2 28 2.2 36
23:50 1025 30.27 855 25.25 21.1 69.9 28 2.2 35.9
23:55 1025 30.27 855 25.25 21 69.8 29 2.2 36
24:00 1025 30.27 855 25.25 20.9 69.7 28 2.1 35.8